Current | Forecast
Updated: 9:00 PM JST on June 23, 2017
Observed at Nagoya / Chubu, Japan
Temperature 72°F
Humidity 83%
Dew Point 66°F
Wind ESE at 14 mph
Pressure 29.74 in (Rising)
Conditions Clear
Visibility -
UV N/A
Clouds
Yesterday's Maximum 79°F
Yesterday's Minimum 70°F approx.
Yesterday's Cooling Degree Days 9 approx.
Sunrise4:42 AM JST
Sunset7:12 PM JST
Moon Rise3:48 AM JST
Moon Set6:07 PM JST
Moon PhaseMoon Phase
Waning Crescent
Raw METARMETAR RJGG 231200Z 12012KT CAVOK 22/19 Q1007 NOSIG


Monday
. High: 77° F.
Tuesday
. High: 75° F.
Wednesday
. High: 71° F.
Thursday
. High: 77° F.
Friday
. High: 78° F.
Saturday
. High: 77° F.
Sunday
. High: 80° F.
Monday
. High: 78° F.

Units: English | Metric

Find the Weather for any City, State or Zipcode, or Country:

U.S. State List | Severe Weather | Tropical Storms | Ski Conditions
United States | Canada | Central America | South America | Asia | Europe | Australia | Africa | Islands

Weather Underground

© Copyright 2017
The Weather Company, LLC